createdAt,value
2022-09-07T00:01:07.524Z,99.90
2022-09-07T00:03:37.563Z,99.90
2022-09-07T00:06:09.549Z,99.90
2022-09-07T00:08:36.343Z,99.90
2022-09-07T00:11:06.189Z,99.90
2022-09-07T00:13:36.855Z,99.90
2022-09-07T00:16:13.110Z,99.90
2022-09-07T00:18:43.812Z,99.90
2022-09-07T00:21:17.458Z,99.90
2022-09-07T00:23:49.011Z,99.90
2022-09-07T00:26:22.001Z,99.90
2022-09-07T00:28:52.196Z,99.90
2022-09-07T00:31:21.970Z,99.90
2022-09-07T00:33:50.669Z,99.90
2022-09-07T00:36:18.939Z,99.90
2022-09-07T00:38:46.157Z,99.90
2022-09-07T00:41:13.758Z,99.90
2022-09-07T00:43:44.925Z,99.90
2022-09-07T00:46:20.467Z,99.90
2022-09-07T00:48:59.102Z,99.90
2022-09-07T00:51:38.805Z,99.90
2022-09-07T00:54:10.051Z,99.90
2022-09-07T00:56:41.371Z,99.90
2022-09-07T00:59:11.077Z,99.90
2022-09-07T01:01:39.314Z,99.90
2022-09-07T01:04:06.740Z,99.90
2022-09-07T01:06:36.109Z,99.90
2022-09-07T01:09:10.143Z,99.90
2022-09-07T01:11:38.048Z,99.90
2022-09-07T01:14:09.387Z,99.90
2022-09-07T01:17:14.820Z,99.90
2022-09-07T01:19:50.429Z,99.90
2022-09-07T01:22:23.217Z,99.90
2022-09-07T01:24:58.994Z,99.90
2022-09-07T01:27:41.644Z,99.90
2022-09-07T01:30:09.529Z,99.90
2022-09-07T01:32:39.191Z,99.90
2022-09-07T01:35:14.330Z,99.90
2022-09-07T01:38:03.250Z,99.90
2022-09-07T01:40:43.174Z,99.90
2022-09-07T01:43:17.150Z,99.90
2022-09-07T01:45:45.783Z,99.90
2022-09-07T01:48:17.601Z,99.90
2022-09-07T01:50:52.448Z,99.90
2022-09-07T01:53:30.809Z,99.90
2022-09-07T01:56:07.469Z,99.90
2022-09-07T01:58:56.537Z,99.90
2022-09-07T02:01:35.385Z,99.90
2022-09-07T02:04:11.086Z,99.90
2022-09-07T02:06:45.516Z,99.90
2022-09-07T02:09:26.617Z,99.90
2022-09-07T02:11:57.403Z,99.90
2022-09-07T02:14:51.934Z,99.90
2022-09-07T02:17:35.885Z,99.90
2022-09-07T02:20:16.737Z,99.90
2022-09-07T02:22:48.190Z,99.90
2022-09-07T02:25:19.671Z,99.90
2022-09-07T02:27:54.367Z,99.90
2022-09-07T02:30:24.158Z,99.90
2022-09-07T02:32:51.120Z,99.90
2022-09-07T02:35:20.152Z,99.90
2022-09-07T02:37:48.549Z,99.90
2022-09-07T02:40:15.273Z,99.90
2022-09-07T02:42:43.301Z,99.90
2022-09-07T02:45:15.560Z,99.90
2022-09-07T02:47:45.049Z,99.90
2022-09-07T02:50:15.119Z,99.90
2022-09-07T02:53:26.489Z,99.90
2022-09-07T02:56:16.783Z,99.90
2022-09-07T02:58:50.480Z,99.90
2022-09-07T03:02:01.764Z,99.90
2022-09-07T03:04:43.272Z,99.90
2022-09-07T03:07:15.226Z,99.90
2022-09-07T03:09:43.746Z,99.90
2022-09-07T03:12:14.510Z,99.90
2022-09-07T03:14:43.051Z,99.90
2022-09-07T03:17:13.094Z,99.90
2022-09-07T03:19:42.330Z,99.90
2022-09-07T03:22:09.093Z,99.90
2022-09-07T03:24:36.764Z,99.90
2022-09-07T03:27:03.694Z,99.90
2022-09-07T03:29:30.933Z,99.90
2022-09-07T03:31:57.778Z,99.90
2022-09-07T03:34:26.771Z,99.90
2022-09-07T03:36:53.609Z,99.90
2022-09-07T03:39:23.751Z,99.90
2022-09-07T03:41:50.764Z,99.90
2022-09-07T03:44:17.858Z,99.90
2022-09-07T03:46:44.697Z,99.90
2022-09-07T03:49:11.591Z,99.90
2022-09-07T03:51:38.388Z,99.90
2022-09-07T03:54:08.261Z,99.90
2022-09-07T03:56:34.999Z,99.90
2022-09-07T03:59:02.221Z,99.90
2022-09-07T04:01:29.185Z,99.90
2022-09-07T04:04:05.155Z,99.90
2022-09-07T04:06:32.477Z,99.90
2022-09-07T04:09:05.613Z,99.90
2022-09-07T04:11:32.994Z,99.90
2022-09-07T04:14:02.461Z,99.90
2022-09-07T04:16:34.579Z,99.90
2022-09-07T04:19:01.734Z,99.90
2022-09-07T04:21:30.623Z,99.90
2022-09-07T04:23:57.892Z,99.90
2022-09-07T04:26:34.153Z,99.90
2022-09-07T04:29:04.104Z,99.90
2022-09-07T04:31:34.935Z,99.90
2022-09-07T04:34:04.804Z,99.90
2022-09-07T04:36:34.733Z,99.90
2022-09-07T04:39:04.890Z,99.90
2022-09-07T04:41:32.949Z,99.90
2022-09-07T04:44:01.693Z,99.90
2022-09-07T04:46:33.882Z,99.90
2022-09-07T04:49:04.324Z,99.90
2022-09-07T04:51:34.604Z,99.90
2022-09-07T04:54:02.510Z,99.90
2022-09-07T04:56:30.231Z,99.90
2022-09-07T04:58:57.295Z,99.90
2022-09-07T05:01:25.916Z,99.90
2022-09-07T05:03:53.043Z,99.90
2022-09-07T05:06:21.799Z,99.90
2022-09-07T05:08:53.462Z,99.90
2022-09-07T05:11:28.751Z,99.90
2022-09-07T05:14:01.192Z,99.90
2022-09-07T05:16:33.313Z,99.90
2022-09-07T05:19:03.909Z,99.90
2022-09-07T05:21:34.976Z,99.90
2022-09-07T05:24:02.645Z,99.90
2022-09-07T05:26:32.769Z,99.90
2022-09-07T05:31:55.884Z,99.90
2022-09-07T05:34:31.440Z,99.90
2022-09-07T05:36:59.038Z,99.90
2022-09-07T05:39:26.712Z,99.90
2022-09-07T05:41:54.007Z,99.90
2022-09-07T05:47:10.106Z,99.90
2022-09-07T05:49:39.108Z,99.90
2022-09-07T05:52:06.013Z,99.90
2022-09-07T05:54:32.884Z,99.90
2022-09-07T05:56:59.651Z,99.90
2022-09-07T05:59:26.452Z,99.90
2022-09-07T06:01:53.337Z,99.90
2022-09-07T06:04:22.946Z,99.90
2022-09-07T06:07:20.174Z,99.90
2022-09-07T06:12:28.356Z,99.90
2022-09-07T06:14:55.226Z,99.90
2022-09-07T06:17:26.590Z,99.90
2022-09-07T06:19:53.654Z,99.90
2022-09-07T06:22:20.552Z,99.90
2022-09-07T06:24:49.523Z,99.90
2022-09-07T06:27:16.480Z,99.90
2022-09-07T06:29:43.472Z,99.90
2022-09-07T06:34:59.311Z,99.90
2022-09-07T06:37:26.139Z,99.90
2022-09-07T06:39:55.408Z,99.90
2022-09-07T06:42:25.227Z,99.90
2022-09-07T06:44:55.279Z,99.90
2022-09-07T06:47:24.793Z,99.90
2022-09-07T06:49:51.546Z,99.90
2022-09-07T06:52:18.326Z,99.90
2022-09-07T06:55:00.987Z,99.90
2022-09-07T06:57:30.405Z,99.90
2022-09-07T06:59:57.230Z,99.90
2022-09-07T07:02:24.093Z,99.90
2022-09-07T07:04:51.048Z,99.90
2022-09-07T07:07:23.911Z,99.90
2022-09-07T07:09:54.046Z,99.90
2022-09-07T07:14:54.736Z,99.90
2022-09-07T07:17:21.793Z,99.90
2022-09-07T07:19:48.558Z,99.90
2022-09-07T07:25:02.509Z,99.90
2022-09-07T07:27:31.479Z,99.90
2022-09-07T07:29:58.497Z,99.90
2022-09-07T07:32:25.262Z,99.90
2022-09-07T07:34:52.257Z,99.90
2022-09-07T07:37:18.998Z,99.90
2022-09-07T07:42:39.693Z,99.90
2022-09-07T07:47:54.840Z,99.90
2022-09-07T07:50:31.935Z,99.90
2022-09-07T07:55:46.837Z,99.90
2022-09-07T07:58:16.009Z,99.90
2022-09-07T08:00:58.557Z,99.90
2022-09-07T08:03:30.317Z,99.90
2022-09-07T08:06:04.383Z,99.90
2022-09-07T08:08:34.028Z,99.90
2022-09-07T08:11:17.006Z,99.90
2022-09-07T08:13:45.650Z,99.90
2022-09-07T08:16:13.578Z,99.90
2022-09-07T08:18:40.410Z,99.90
2022-09-07T08:21:12.520Z,99.90
2022-09-07T08:23:39.682Z,99.90
2022-09-07T08:26:06.692Z,99.90
2022-09-07T08:28:36.734Z,99.90
2022-09-07T08:31:12.939Z,99.90
2022-09-07T08:33:45.192Z,99.90
2022-09-07T08:36:15.266Z,99.90
2022-09-07T08:38:45.435Z,99.90
2022-09-07T08:41:40.727Z,99.90
2022-09-07T08:44:27.897Z,99.90
2022-09-07T08:47:16.845Z,99.90
2022-09-07T08:49:52.055Z,99.90
2022-09-07T08:52:29.135Z,99.80
2022-09-07T08:55:21.049Z,99.50
2022-09-07T08:57:55.400Z,99.20
2022-09-07T09:00:22.608Z,98.90
2022-09-07T09:06:08.871Z,98.20
2022-09-07T09:08:53.023Z,97.80
2022-09-07T09:11:44.386Z,97.50
2022-09-07T09:14:19.831Z,97.20
2022-09-07T09:16:53.136Z,97.10
2022-09-07T09:19:23.018Z,97.20
2022-09-07T09:22:00.606Z,97.00
2022-09-07T09:24:33.912Z,96.80
2022-09-07T09:27:01.193Z,96.50
2022-09-07T09:29:28.170Z,96.20
2022-09-07T09:31:57.414Z,96.00
2022-09-07T09:34:29.326Z,96.00
2022-09-07T09:36:58.118Z,95.50
2022-09-07T09:39:33.322Z,95.00
2022-09-07T09:42:05.285Z,94.10
2022-09-07T09:44:37.584Z,93.90
2022-09-07T09:47:33.318Z,93.70
2022-09-07T09:50:07.548Z,93.70
2022-09-07T09:52:47.604Z,93.70
2022-09-07T09:55:35.901Z,93.60
2022-09-07T10:03:55.399Z,92.70
2022-09-07T10:06:23.241Z,92.10
2022-09-07T10:08:57.826Z,92.00
2022-09-07T10:14:53.186Z,92.10
2022-09-07T10:17:33.280Z,92.20
2022-09-07T10:20:13.059Z,92.10
2022-09-07T10:23:00.446Z,91.80
2022-09-07T10:25:44.334Z,91.50
2022-09-07T10:28:14.056Z,91.70
2022-09-07T10:31:16.519Z,91.60
2022-09-07T10:34:25.740Z,91.30
2022-09-07T10:36:54.100Z,91.30
2022-09-07T10:39:27.806Z,91.50
2022-09-07T10:42:20.320Z,91.90
2022-09-07T10:44:56.356Z,92.10
2022-09-07T10:47:59.729Z,91.50
2022-09-07T10:50:47.822Z,91.00
2022-09-07T10:56:59.626Z,90.40
2022-09-07T11:05:50.561Z,89.00
2022-09-07T11:09:15.873Z,88.50
2022-09-07T11:14:22.001Z,87.30
2022-09-07T11:17:01.456Z,87.00
2022-09-07T11:19:43.943Z,86.40
2022-09-07T11:22:28.128Z,86.80
2022-09-07T11:28:21.005Z,86.30
2022-09-07T11:30:57.842Z,85.70
2022-09-07T11:33:32.418Z,84.80
2022-09-07T11:36:12.363Z,84.90
2022-09-07T11:38:49.135Z,84.20
2022-09-07T11:41:37.081Z,84.50
2022-09-07T11:44:28.669Z,84.00
2022-09-07T11:47:04.154Z,83.60
2022-09-07T11:49:30.936Z,83.80
2022-09-07T11:52:05.126Z,82.60
2022-09-07T11:54:35.205Z,81.70
2022-09-07T11:57:19.545Z,81.10
2022-09-07T12:00:01.684Z,80.00
2022-09-07T12:02:58.728Z,78.90
2022-09-07T12:05:41.464Z,77.60
2022-09-07T12:08:49.388Z,77.40
2022-09-07T12:11:37.610Z,78.00
2022-09-07T12:14:10.338Z,77.20
2022-09-07T12:16:59.820Z,77.00
2022-09-07T12:19:30.236Z,77.50
2022-09-07T12:22:00.694Z,77.80
2022-09-07T12:24:49.815Z,78.50
2022-09-07T12:27:28.061Z,78.80
2022-09-07T12:29:57.971Z,79.60
2022-09-07T12:32:58.220Z,79.80
2022-09-07T12:35:41.948Z,79.70
2022-09-07T12:38:16.938Z,80.10
2022-09-07T12:40:58.994Z,79.70
2022-09-07T12:43:43.850Z,78.30
2022-09-07T12:46:39.314Z,78.80
2022-09-07T12:49:20.368Z,79.50
2022-09-07T12:52:15.972Z,79.40
2022-09-07T12:55:23.646Z,79.60
2022-09-07T12:58:17.189Z,80.10
2022-09-07T13:01:08.458Z,79.20
2022-09-07T13:03:53.883Z,79.30
2022-09-07T13:07:07.596Z,79.70
2022-09-07T13:09:39.306Z,80.50
2022-09-07T13:12:53.668Z,80.20
2022-09-07T13:15:41.038Z,80.80
2022-09-07T13:18:31.647Z,80.60
2022-09-07T13:21:07.409Z,80.80
2022-09-07T13:24:45.560Z,81.40
2022-09-07T13:27:22.626Z,80.80
2022-09-07T13:29:57.207Z,80.10
2022-09-07T13:35:29.403Z,79.50
2022-09-07T13:37:59.782Z,78.70
2022-09-07T13:40:30.322Z,77.70
2022-09-07T13:42:58.747Z,77.90
2022-09-07T13:45:36.887Z,78.50
2022-09-07T13:48:14.817Z,78.70
2022-09-07T13:50:47.326Z,78.50
2022-09-07T13:53:46.917Z,78.10
2022-09-07T13:56:42.883Z,76.40
2022-09-07T13:59:25.423Z,76.40
2022-09-07T14:01:56.101Z,77.80
2022-09-07T14:04:32.916Z,77.50
2022-09-07T14:07:26.738Z,76.30
2022-09-07T14:10:19.748Z,76.40
2022-09-07T14:12:53.971Z,76.80
2022-09-07T14:15:50.809Z,76.60
2022-09-07T14:18:30.409Z,76.60
2022-09-07T14:20:58.814Z,75.40
2022-09-07T14:23:31.401Z,75.80
2022-09-07T14:26:18.284Z,76.20
2022-09-07T14:28:54.040Z,75.00
2022-09-07T14:31:23.179Z,75.70
2022-09-07T14:33:58.485Z,75.30
2022-09-07T14:36:46.460Z,75.20
2022-09-07T14:39:17.063Z,73.80
2022-09-07T14:41:44.963Z,74.00
2022-09-07T14:44:32.805Z,75.00
2022-09-07T14:47:04.049Z,75.50
2022-09-07T14:49:31.422Z,76.40
2022-09-07T14:52:00.674Z,75.80
2022-09-07T14:54:34.860Z,75.70
2022-09-07T14:57:27.369Z,75.60
2022-09-07T14:59:57.230Z,75.30
2022-09-07T15:02:31.768Z,75.10
2022-09-07T15:05:25.480Z,75.30
2022-09-07T15:08:05.295Z,75.00
2022-09-07T15:10:41.270Z,75.00
2022-09-07T15:13:26.926Z,75.90
2022-09-07T15:15:59.419Z,76.40
2022-09-07T15:18:57.481Z,76.00
2022-09-07T15:21:36.550Z,74.10
2022-09-07T15:24:07.414Z,74.20
2022-09-07T15:29:30.522Z,74.60
2022-09-07T15:32:04.433Z,75.40
2022-09-07T15:34:32.670Z,75.80
2022-09-07T15:37:03.707Z,76.30
2022-09-07T15:39:31.324Z,76.20
2022-09-07T15:42:00.685Z,76.30
2022-09-07T15:44:47.758Z,76.10
2022-09-07T15:50:05.509Z,76.20
2022-09-07T15:52:32.675Z,76.20
2022-09-07T15:54:59.776Z,76.30
2022-09-07T16:00:16.147Z,75.90
2022-09-07T16:05:34.478Z,75.70
2022-09-07T16:11:05.054Z,75.70
2022-09-07T16:13:35.761Z,75.80
2022-09-07T16:16:05.885Z,75.50
2022-09-07T16:18:34.161Z,76.00
2022-09-07T16:21:26.226Z,76.10
2022-09-07T16:23:56.360Z,75.80
2022-09-07T16:26:27.717Z,76.10
2022-09-07T16:28:56.947Z,75.50
2022-09-07T16:31:27.717Z,75.50
2022-09-07T16:33:58.118Z,76.00
2022-09-07T16:36:27.950Z,76.30
2022-09-07T16:38:56.312Z,76.60
2022-09-07T16:41:29.258Z,76.80
2022-09-07T16:43:56.519Z,77.50
2022-09-07T16:46:26.448Z,77.50
2022-09-07T16:48:55.705Z,77.50
2022-09-07T16:51:23.876Z,78.20
2022-09-07T16:53:54.245Z,78.50
2022-09-07T16:56:23.936Z,78.00
2022-09-07T16:59:01.878Z,78.60
2022-09-07T17:01:34.517Z,78.70
2022-09-07T17:04:04.355Z,78.30
2022-09-07T17:06:33.860Z,77.50
2022-09-07T17:09:00.686Z,77.50
2022-09-07T17:11:33.054Z,77.60
2022-09-07T17:14:00.342Z,77.60
2022-09-07T17:16:30.403Z,77.00
2022-09-07T17:21:50.115Z,76.80
2022-09-07T17:24:19.856Z,77.00
2022-09-07T17:26:49.008Z,77.30
2022-09-07T17:29:16.010Z,77.40
2022-09-07T17:34:31.909Z,78.00
2022-09-07T17:37:00.554Z,78.10
2022-09-07T17:39:28.002Z,78.00
2022-09-07T17:41:55.081Z,78.30
2022-09-07T17:44:23.291Z,78.60
2022-09-07T17:46:51.706Z,79.00
2022-09-07T17:49:18.547Z,79.70
2022-09-07T17:51:45.793Z,80.30
2022-09-07T17:54:15.762Z,81.20
2022-09-07T17:56:43.552Z,83.00
2022-09-07T18:02:00.937Z,83.60
2022-09-07T18:04:28.518Z,84.20
2022-09-07T18:06:55.461Z,84.70
2022-09-07T18:09:22.149Z,86.10
2022-09-07T18:11:51.654Z,86.30
2022-09-07T18:14:19.309Z,86.60
2022-09-07T18:16:48.973Z,87.10
2022-09-07T18:19:18.783Z,87.60
2022-09-07T18:21:48.245Z,87.70
2022-09-07T18:24:23.619Z,88.30
2022-09-07T18:26:52.657Z,89.40
2022-09-07T18:29:33.534Z,89.60
2022-09-07T18:32:04.799Z,90.10
2022-09-07T18:34:34.622Z,89.90
2022-09-07T18:37:04.688Z,90.10
2022-09-07T18:39:32.387Z,90.30
2022-09-07T18:41:59.164Z,90.50
2022-09-07T18:47:21.690Z,91.00
2022-09-07T18:49:51.389Z,91.20
2022-09-07T18:55:07.312Z,91.70
2022-09-07T18:57:37.219Z,91.70
2022-09-07T19:00:07.993Z,91.90
2022-09-07T19:02:37.353Z,92.10
2022-09-07T19:07:53.840Z,92.40
2022-09-07T19:10:20.630Z,92.70
2022-09-07T19:12:47.473Z,93.00
2022-09-07T19:15:20.352Z,93.10
2022-09-07T19:17:47.032Z,93.10
2022-09-07T19:20:13.765Z,93.10
2022-09-07T19:22:50.871Z,93.20
2022-09-07T19:25:19.352Z,93.10
2022-09-07T19:27:46.068Z,93.10
2022-09-07T19:30:13.555Z,93.40
2022-09-07T19:32:42.588Z,93.40
2022-09-07T19:35:12.261Z,93.40
2022-09-07T19:37:41.791Z,93.40
2022-09-07T19:40:13.528Z,93.40
2022-09-07T19:42:42.571Z,93.40
2022-09-07T19:45:12.079Z,93.40
2022-09-07T19:47:38.790Z,93.30
2022-09-07T19:50:06.027Z,93.40
2022-09-07T19:52:32.915Z,93.70
2022-09-07T19:55:02.698Z,93.70
2022-09-07T19:57:29.874Z,93.80
2022-09-07T19:59:59.207Z,93.80
2022-09-07T20:02:28.387Z,93.80
2022-09-07T20:04:55.615Z,93.90
2022-09-07T20:07:22.441Z,94.20
2022-09-07T20:09:51.056Z,94.50
2022-09-07T20:12:19.101Z,94.80
2022-09-07T20:14:46.137Z,95.10
2022-09-07T20:17:15.098Z,95.40
2022-09-07T20:19:41.884Z,95.60
2022-09-07T20:22:13.781Z,95.90
2022-09-07T20:24:43.748Z,96.20
2022-09-07T20:27:12.691Z,96.40
2022-09-07T20:29:41.766Z,96.60
2022-09-07T20:32:10.750Z,96.80
2022-09-07T20:34:37.631Z,97.10
2022-09-07T20:37:06.566Z,97.30
2022-09-07T20:39:39.094Z,97.30
2022-09-07T20:42:08.621Z,97.40
2022-09-07T20:44:35.528Z,97.60
2022-09-07T20:47:02.924Z,98.00
2022-09-07T20:49:30.300Z,98.00
2022-09-07T20:51:57.054Z,98.20
2022-09-07T20:54:24.007Z,98.40
2022-09-07T20:56:50.675Z,98.70
2022-09-07T20:59:17.603Z,98.80
2022-09-07T21:01:44.460Z,98.80
2022-09-07T21:04:11.292Z,99.00
2022-09-07T21:06:40.478Z,99.50
2022-09-07T21:09:07.183Z,99.50
2022-09-07T21:11:35.561Z,99.10
2022-09-07T21:14:07.960Z,99.10
2022-09-07T21:16:37.663Z,99.10
2022-09-07T21:19:07.285Z,99.30
2022-09-07T21:21:38.719Z,99.30
2022-09-07T21:24:06.634Z,99.30
2022-09-07T21:26:35.482Z,99.40
2022-09-07T21:29:05.121Z,99.50
2022-09-07T21:31:33.654Z,99.60
2022-09-07T21:34:02.231Z,99.70
2022-09-07T21:36:31.816Z,99.60
2022-09-07T21:38:58.577Z,99.60
2022-09-07T21:41:25.726Z,99.70
2022-09-07T21:43:56.669Z,99.80
2022-09-07T21:46:24.474Z,99.90
2022-09-07T21:48:51.359Z,99.90
2022-09-07T21:51:18.439Z,99.90
2022-09-07T21:53:45.189Z,99.90
2022-09-07T21:56:14.249Z,99.90
2022-09-07T21:58:41.609Z,99.90
2022-09-07T22:01:14.324Z,99.90
2022-09-07T22:03:41.281Z,99.90
2022-09-07T22:06:08.780Z,99.90
2022-09-07T22:08:39.106Z,99.90
2022-09-07T22:11:07.996Z,99.70
2022-09-07T22:13:35.225Z,99.60
2022-09-07T22:16:03.525Z,99.80
2022-09-07T22:18:32.959Z,99.40
2022-09-07T22:21:12.029Z,99.40
2022-09-07T22:23:43.779Z,99.50
2022-09-07T22:26:11.681Z,99.60
2022-09-07T22:28:41.752Z,99.60
2022-09-07T22:31:15.067Z,99.60
2022-09-07T22:33:42.280Z,99.70
2022-09-07T22:36:23.527Z,99.90
2022-09-07T22:38:53.259Z,99.90
2022-09-07T22:41:22.083Z,99.90
2022-09-07T22:43:50.916Z,99.90
2022-09-07T22:46:20.370Z,99.90
2022-09-07T22:48:49.886Z,99.90
2022-09-07T22:51:17.517Z,99.90
2022-09-07T22:53:45.025Z,99.90
2022-09-07T22:56:18.588Z,99.90
2022-09-07T22:58:47.068Z,99.90
2022-09-07T23:01:14.119Z,99.90
2022-09-07T23:03:43.650Z,99.90
2022-09-07T23:06:34.784Z,99.90
2022-09-07T23:09:05.213Z,99.90
2022-09-07T23:11:34.146Z,99.90
2022-09-07T23:14:03.132Z,99.90
2022-09-07T23:16:33.036Z,99.90
2022-09-07T23:19:00.812Z,99.90
2022-09-07T23:21:27.948Z,99.90
2022-09-07T23:23:59.713Z,99.90
2022-09-07T23:26:30.043Z,99.90
2022-09-07T23:29:01.699Z,99.90
2022-09-07T23:31:29.867Z,99.90
2022-09-07T23:33:59.958Z,99.90
2022-09-07T23:36:29.572Z,99.90
2022-09-07T23:38:58.449Z,99.90
2022-09-07T23:41:25.782Z,99.90
2022-09-07T23:43:55.866Z,99.90
2022-09-07T23:46:25.622Z,99.90
2022-09-07T23:48:52.462Z,99.90
2022-09-07T23:51:23.829Z,99.90
2022-09-07T23:53:50.925Z,99.90
2022-09-07T23:56:19.999Z,99.90
2022-09-07T23:58:48.906Z,99.90
